Time;durP1;ratioP1;P1;durP2;ratioP2;P2;SDS_P1;SDS_P2;PMS_P1;PMS_P2;Temp;Humidity;BMP_temperature;BMP_pressure;BME280_temperature;BME280_humidity;BME280_pressure;Samples;Min_cycle;Max_cycle;Signal;HPM_P1;HPM_P2
2022/05/31 00:02:08;;;;;;;3.38;0.85;;;;;;;;;;5037452;28;20041;-70
2022/05/31 00:04:35;;;;;;;1.75;0.80;;;;;;;;;;5043788;28;20052;-70
2022/05/31 00:07:04;;;;;;;3.08;1.88;;;;;;;;;;5021539;28;20054;-71
2022/05/31 00:09:31;;;;;;;1.63;0.90;;;;;;;;;;5043087;28;20339;-70
2022/05/31 00:11:57;;;;;;;4.38;1.17;;;;;;;;;;5037374;28;20053;-73
2022/05/31 00:14:25;;;;;;;2.67;1.10;;;;;;;;;;5043904;28;20052;-73
2022/05/31 00:16:52;;;;;;;2.05;0.77;;;;;;;;;;5026581;28;20045;-69
2022/05/31 00:19:20;;;;;;;1.02;0.80;;;;;;;;;;5021736;28;20195;-71
2022/05/31 00:21:49;;;;;;;1.08;0.65;;;;;;;;;;5027669;28;20121;-70
2022/05/31 00:24:17;;;;;;;5.18;1.00;;;;;;;;;;5037958;28;20136;-70
2022/05/31 00:26:44;;;;;;;;;;;;;;;;;;5028493;28;20059;-71
2022/05/31 00:29:11;;;;;;;1.35;0.85;;;;;;;;;;5022581;28;19925;-65
2022/05/31 00:31:40;;;;;;;2.30;0.90;;;;;;;;;;5027751;28;20076;-69
2022/05/31 00:34:07;;;;;;;1.30;0.88;;;;;;;;;;5022725;28;20049;-74
2022/05/31 00:36:36;;;;;;;1.52;0.80;;;;;;;;;;5028228;28;20068;-74
2022/05/31 00:39:03;;;;;;;0.85;0.75;;;;;;;;;;5022290;28;20053;-72
2022/05/31 00:41:31;;;;;;;3.28;0.90;;;;;;;;;;5027169;28;20053;-69
2022/05/31 00:44:01;;;;;;;1.90;0.80;;;;;;;;;;5016782;28;20057;-70
2022/05/31 00:46:29;;;;;;;1.55;0.85;;;;;;;;;;5007821;28;20118;-75
2022/05/31 00:48:58;;;;;;;0.65;0.60;;;;;;;;;;5004613;28;20052;-67
2022/05/31 00:51:27;;;;;;;3.08;1.00;;;;;;;;;;5026736;28;20073;-70
2022/05/31 00:53:57;;;;;;;1.23;0.80;;;;;;;;;;5022105;28;20053;-71
2022/05/31 00:56:25;;;;;;;1.85;0.63;;;;;;;;;;5027529;28;20135;-65
2022/05/31 00:58:54;;;;;;;1.27;0.80;;;;;;;;;;5026963;28;20057;-68
2022/05/31 01:01:21;;;;;;;1.65;0.85;;;;;;;;;;5040706;28;20056;-67
2022/05/31 01:03:48;;;;;;;2.40;0.90;;;;;;;;;;5027685;28;20141;-68
2022/05/31 01:06:15;;;;;;;4.03;0.90;;;;;;;;;;5022352;28;20099;-74
2022/05/31 01:08:45;;;;;;;1.00;0.80;;;;;;;;;;5027181;28;20100;-68
2022/05/31 01:11:13;;;;;;;2.33;0.88;;;;;;;;;;5022526;28;20046;-68
2022/05/31 01:13:40;;;;;;;1.83;0.85;;;;;;;;;;5028088;28;20057;-68
2022/05/31 01:16:09;;;;;;;6.80;0.80;;;;;;;;;;5023767;28;20069;-73
2022/05/31 01:18:36;;;;;;;1.33;0.75;;;;;;;;;;5044715;28;20054;-66
2022/05/31 01:21:04;;;;;;;0.98;0.70;;;;;;;;;;5020599;28;20089;-64
2022/05/31 01:23:33;;;;;;;1.13;0.80;;;;;;;;;;5026233;28;20050;-72
2022/05/31 01:26:03;;;;;;;0.82;0.70;;;;;;;;;;5013519;28;20052;-76
2022/05/31 01:28:34;;;;;;;1.38;0.90;;;;;;;;;;5017425;28;20057;-77
2022/05/31 01:31:03;;;;;;;1.55;0.80;;;;;;;;;;5020656;28;20072;-68
2022/05/31 01:33:32;;;;;;;1.88;0.85;;;;;;;;;;5026734;28;20049;-71
2022/05/31 01:36:01;;;;;;;1.08;0.73;;;;;;;;;;5023909;28;20056;-65
2022/05/31 01:38:32;;;;;;;1.83;0.90;;;;;;;;;;5030552;28;20063;-79
2022/05/31 01:41:04;;;;;;;2.33;0.70;;;;;;;;;;5023270;28;20057;-76
2022/05/31 01:43:30;;;;;;;1.77;0.80;;;;;;;;;;5028812;28;20073;-71
2022/05/31 01:46:00;;;;;;;0.90;0.68;;;;;;;;;;5024694;28;20126;-77
2022/05/31 01:48:28;;;;;;;1.08;0.70;;;;;;;;;;5030407;28;20049;-70
2022/05/31 01:50:55;;;;;;;1.02;0.73;;;;;;;;;;5029401;28;20121;-68
2022/05/31 01:53:21;;;;;;;2.15;0.90;;;;;;;;;;5042095;28;20171;-75
2022/05/31 01:55:50;;;;;;;1.77;0.77;;;;;;;;;;5029801;28;20136;-66
2022/05/31 01:58:18;;;;;;;1.52;0.90;;;;;;;;;;5011404;28;20110;-75
2022/05/31 02:00:45;;;;;;;1.58;0.93;;;;;;;;;;5012664;28;21879;-75
2022/05/31 02:03:15;;;;;;;2.75;0.90;;;;;;;;;;5025259;28;20060;-73
2022/05/31 02:05:46;;;;;;;5.72;0.85;;;;;;;;;;5029910;28;20057;-71
2022/05/31 02:08:13;;;;;;;0.98;0.70;;;;;;;;;;5024355;28;20061;-69
2022/05/31 02:10:40;;;;;;;1.13;0.80;;;;;;;;;;5029441;28;20057;-76
2022/05/31 02:13:08;;;;;;;1.77;0.85;;;;;;;;;;5024000;28;20053;-75
2022/05/31 02:15:36;;;;;;;2.13;1.00;;;;;;;;;;5030310;28;20062;-68
2022/05/31 02:18:02;;;;;;;1.75;1.00;;;;;;;;;;5040841;28;20049;-75
2022/05/31 02:20:29;;;;;;;2.15;1.10;;;;;;;;;;5028924;28;20060;-71
2022/05/31 02:22:55;;;;;;;1.95;1.00;;;;;;;;;;5023463;28;20057;-73
2022/05/31 02:25:23;;;;;;;2.38;1.10;;;;;;;;;;5029799;28;20060;-71
2022/05/31 02:27:49;;;;;;;1.10;0.80;;;;;;;;;;5024047;28;20050;-66
2022/05/31 02:30:17;;;;;;;2.25;0.95;;;;;;;;;;5029270;28;20171;-69
2022/05/31 02:32:44;;;;;;;1.60;0.90;;;;;;;;;;5023744;28;20067;-70
2022/05/31 02:35:12;;;;;;;1.48;0.77;;;;;;;;;;5030052;28;20139;-67
2022/05/31 02:37:39;;;;;;;2.03;0.98;;;;;;;;;;5030133;28;20049;-76
2022/05/31 02:40:07;;;;;;;2.17;1.10;;;;;;;;;;5024028;28;20094;-73
2022/05/31 02:42:34;;;;;;;2.83;1.00;;;;;;;;;;5030412;28;20057;-65
2022/05/31 02:45:00;;;;;;;3.13;1.30;;;;;;;;;;5023744;28;20056;-72
2022/05/31 02:47:28;;;;;;;4.90;1.65;;;;;;;;;;5029844;28;20115;-69
2022/05/31 02:49:55;;;;;;;1.80;0.80;;;;;;;;;;5024539;28;20131;-70
2022/05/31 02:52:22;;;;;;;2.17;1.30;;;;;;;;;;5031682;28;20141;-72
2022/05/31 02:54:53;;;;;;;3.08;1.40;;;;;;;;;;5025172;28;20045;-70
2022/05/31 02:57:19;;;;;;;1.55;0.90;;;;;;;;;;5029269;28;20057;-72
2022/05/31 02:59:46;;;;;;;3.50;1.00;;;;;;;;;;5023299;28;20053;-72
2022/05/31 03:02:12;;;;;;;1.85;1.00;;;;;;;;;;5028988;28;20053;-71
2022/05/31 03:04:41;;;;;;;2.42;1.35;;;;;;;;;;5023499;28;20049;-70
2022/05/31 03:07:10;;;;;;;2.40;1.00;;;;;;;;;;5028619;28;20060;-71
2022/05/31 03:09:37;;;;;;;2.35;1.25;;;;;;;;;;5023112;28;20064;-72
2022/05/31 03:12:05;;;;;;;2.20;1.10;;;;;;;;;;5044485;28;20058;-70
2022/05/31 03:14:35;;;;;;;1.92;1.00;;;;;;;;;;5022892;28;20050;-68
2022/05/31 03:17:03;;;;;;;2.78;1.30;;;;;;;;;;5028168;28;20053;-65
2022/05/31 03:19:32;;;;;;;3.25;1.58;;;;;;;;;;5022382;28;20119;-71
2022/05/31 03:21:59;;;;;;;;;;;;;;;;;;5028723;28;20058;-70
2022/05/31 03:24:29;;;;;;;2.83;1.02;;;;;;;;;;5009951;28;19925;-68
2022/05/31 03:26:56;;;;;;;2.13;1.08;;;;;;;;;;5022476;28;20087;-72
2022/05/31 03:29:23;;;;;;;1.90;1.10;;;;;;;;;;5028443;28;20064;-76
2022/05/31 03:31:50;;;;;;;3.53;1.75;;;;;;;;;;5006441;28;20054;-73
2022/05/31 03:34:17;;;;;;;5.80;2.08;;;;;;;;;;5007968;28;20099;-64
2022/05/31 03:36:44;;;;;;;3.03;1.15;;;;;;;;;;5017285;28;20108;-65
2022/05/31 03:39:10;;;;;;;4.95;1.63;;;;;;;;;;5028175;28;20061;-75
2022/05/31 03:41:38;;;;;;;2.65;1.30;;;;;;;;;;5012043;28;20077;-68
2022/05/31 03:44:05;;;;;;;2.33;1.20;;;;;;;;;;5009159;28;20057;-73
2022/05/31 03:46:32;;;;;;;4.32;1.67;;;;;;;;;;5012837;28;20049;-72
2022/05/31 03:48:58;;;;;;;2.53;1.30;;;;;;;;;;5028763;28;20061;-65
2022/05/31 03:51:25;;;;;;;3.03;1.25;;;;;;;;;;5022136;28;20110;-67
2022/05/31 03:53:52;;;;;;;2.40;1.38;;;;;;;;;;5025351;28;20049;-72
2022/05/31 03:56:18;;;;;;;2.72;1.27;;;;;;;;;;5023095;28;20057;-68
2022/05/31 03:58:46;;;;;;;2.20;1.20;;;;;;;;;;5026545;28;20064;-67
2022/05/31 04:01:13;;;;;;;5.05;1.42;;;;;;;;;;5018798;28;20103;-68
2022/05/31 04:03:41;;;;;;;2.30;1.25;;;;;;;;;;5006270;28;20054;-65
2022/05/31 04:06:08;;;;;;;1.90;1.23;;;;;;;;;;5050527;28;20050;-67
2022/05/31 04:08:35;;;;;;;3.63;1.48;;;;;;;;;;5022255;28;20148;-68
2022/05/31 04:11:02;;;;;;;2.67;1.50;;;;;;;;;;5042906;28;20046;-66
2022/05/31 04:13:28;;;;;;;2.83;1.40;;;;;;;;;;5038771;28;20060;-71
2022/05/31 04:16:07;;;;;;;2.22;1.20;;;;;;;;;;5028604;28;20153;-72
2022/05/31 04:18:34;;;;;;;3.08;1.48;;;;;;;;;;5021588;28;20073;-71
2022/05/31 04:21:01;;;;;;;6.18;2.40;;;;;;;;;;5044521;28;20077;-71
2022/05/31 04:26:12;;;;;;;5.03;1.38;;;;;;;;;;5045459;28;20072;-68
2022/05/31 04:28:39;;;;;;;2.50;1.40;;;;;;;;;;5044660;28;20135;-71
2022/05/31 04:31:07;;;;;;;3.53;1.65;;;;;;;;;;5025949;28;20057;-72
2022/05/31 04:33:33;;;;;;;6.95;3.03;;;;;;;;;;5028535;28;20045;-67
2022/05/31 04:36:01;;;;;;;3.53;1.85;;;;;;;;;;5021326;28;20112;-73
2022/05/31 04:38:28;;;;;;;2.97;1.50;;;;;;;;;;5027622;28;20107;-65
2022/05/31 04:40:54;;;;;;;4.28;1.70;;;;;;;;;;5020582;28;20057;-65
2022/05/31 04:43:21;;;;;;;2.90;1.30;;;;;;;;;;5043875;28;20060;-67
2022/05/31 04:45:50;;;;;;;4.50;1.80;;;;;;;;;;5022752;28;20152;-68
2022/05/31 04:48:18;;;;;;;5.00;1.98;;;;;;;;;;5025699;28;20078;-67
2022/05/31 04:50:44;;;;;;;5.80;2.13;;;;;;;;;;5042703;28;20049;-68
2022/05/31 04:53:11;;;;;;;3.92;2.00;;;;;;;;;;5020141;28;20140;-70
2022/05/31 04:55:42;;;;;;;3.65;1.40;;;;;;;;;;5040084;28;20057;-70
2022/05/31 04:58:09;;;;;;;3.40;1.70;;;;;;;;;;5017679;28;20155;-70
2022/05/31 05:00:35;;;;;;;4.03;1.60;;;;;;;;;;5025807;28;20045;-72
2022/05/31 05:03:02;;;;;;;3.78;1.60;;;;;;;;;;5018248;28;20056;-71
2022/05/31 05:05:34;;;;;;;6.90;3.03;;;;;;;;;;5024654;28;20053;-69
2022/05/31 05:08:00;;;;;;;5.88;2.17;;;;;;;;;;5023449;28;20057;-68
2022/05/31 05:10:27;;;;;;;3.95;1.90;;;;;;;;;;5024186;28;20081;-68
2022/05/31 05:12:53;;;;;;;6.68;2.97;;;;;;;;;;5046167;28;20057;-68
2022/05/31 05:15:20;;;;;;;6.78;2.22;;;;;;;;;;5021729;28;20049;-69
2022/05/31 05:17:47;;;;;;;5.80;1.67;;;;;;;;;;5028775;28;20053;-73
2022/05/31 05:20:13;;;;;;;3.28;1.58;;;;;;;;;;5023249;28;20160;-67
2022/05/31 05:22:41;;;;;;;8.88;3.15;;;;;;;;;;5029218;28;20045;-68
2022/05/31 05:25:10;;;;;;;7.60;3.00;;;;;;;;;;5024627;28;20046;-71
2022/05/31 05:27:37;;;;;;;3.83;1.70;;;;;;;;;;5030351;28;20061;-67
2022/05/31 05:32:47;;;;;;;2.67;1.60;;;;;;;;;;5047062;28;20049;-66
2022/05/31 05:35:14;;;;;;;6.60;2.83;;;;;;;;;;5023465;28;20068;-69
2022/05/31 05:37:42;;;;;;;4.82;1.80;;;;;;;;;;5045096;28;20049;-67
2022/05/31 05:40:09;;;;;;;6.73;2.33;;;;;;;;;;5023820;28;20057;-67
2022/05/31 05:42:36;;;;;;;3.03;1.80;;;;;;;;;;5046149;28;20060;-65
2022/05/31 05:45:23;;;;;;;4.63;2.20;;;;;;;;;;5029539;28;20050;-68
2022/05/31 05:47:50;;;;;;;4.90;2.17;;;;;;;;;;4970039;28;20093;-72
2022/05/31 05:50:17;;;;;;;5.82;2.50;;;;;;;;;;5026650;28;20103;-73
2022/05/31 05:52:48;;;;;;;6.40;3.22;;;;;;;;;;5035279;28;20061;-70
2022/05/31 05:55:15;;;;;;;8.85;2.97;;;;;;;;;;5043307;28;20057;-70
2022/05/31 05:57:41;;;;;;;5.40;2.28;;;;;;;;;;5053978;28;20050;-71
2022/05/31 06:00:08;;;;;;;5.25;1.90;;;;;;;;;;5063391;28;20072;-68
2022/05/31 06:02:35;;;;;;;7.70;2.28;;;;;;;;;;5025129;28;20065;-72
2022/05/31 06:05:07;;;;;;;5.65;2.22;;;;;;;;;;5032046;28;20049;-71
2022/05/31 06:07:35;;;;;;;9.63;3.17;;;;;;;;;;5015448;28;20084;-71
2022/05/31 06:10:05;;;;;;;7.00;2.80;;;;;;;;;;5012363;28;20077;-72
2022/05/31 06:12:35;;;;;;;5.25;2.00;;;;;;;;;;5017081;28;20057;-72
2022/05/31 06:15:06;;;;;;;7.53;2.25;;;;;;;;;;5029981;28;20050;-72
2022/05/31 06:17:34;;;;;;;8.30;3.17;;;;;;;;;;5024542;28;20046;-70
2022/05/31 06:20:02;;;;;;;11.63;4.35;;;;;;;;;;5029092;28;20057;-67
2022/05/31 06:22:29;;;;;;;7.07;3.10;;;;;;;;;;5021739;28;20072;-70
2022/05/31 06:24:57;;;;;;;11.95;4.20;;;;;;;;;;5009471;28;20057;-70
2022/05/31 06:27:25;;;;;;;7.50;3.53;;;;;;;;;;5010199;28;20045;-68
2022/05/31 06:29:52;;;;;;;8.20;3.75;;;;;;;;;;5029658;28;20141;-70
2022/05/31 06:32:19;;;;;;;8.65;3.83;;;;;;;;;;5019916;28;20071;-66
2022/05/31 06:34:46;;;;;;;6.53;2.17;;;;;;;;;;5009413;28;20057;-70
2022/05/31 06:37:14;;;;;;;12.38;4.50;;;;;;;;;;5006363;28;20128;-70
2022/05/31 06:39:41;;;;;;;13.95;4.50;;;;;;;;;;5027291;28;20057;-71
2022/05/31 06:42:09;;;;;;;10.40;3.53;;;;;;;;;;5028761;28;20050;-67
2022/05/31 06:44:38;;;;;;;10.00;4.53;;;;;;;;;;5023416;28;20103;-74
2022/05/31 06:47:05;;;;;;;9.00;3.75;;;;;;;;;;5045659;28;20056;-69
2022/05/31 06:49:35;;;;;;;10.57;2.80;;;;;;;;;;5025742;28;20045;-69
2022/05/31 06:57:32;;;;;;;8.10;3.83;;;;;;;;;;5029557;28;20053;-73
2022/05/31 07:00:00;;;;;;;5.28;2.25;;;;;;;;;;5024207;28;20061;-68
2022/05/31 07:02:27;;;;;;;8.40;3.25;;;;;;;;;;5030163;28;20104;-71
2022/05/31 07:04:54;;;;;;;7.55;3.45;;;;;;;;;;5023643;28;20111;-71
2022/05/31 07:07:21;;;;;;;13.00;4.45;;;;;;;;;;5029089;28;20065;-71
2022/05/31 07:09:47;;;;;;;5.60;3.05;;;;;;;;;;5022421;28;20115;-66
2022/05/31 07:12:14;;;;;;;5.25;2.22;;;;;;;;;;5029355;28;20041;-71
2022/05/31 07:14:42;;;;;;;9.98;3.92;;;;;;;;;;5023230;28;20060;-69
2022/05/31 07:17:10;;;;;;;8.63;3.57;;;;;;;;;;5028431;28;20045;-66
2022/05/31 07:19:38;;;;;;;5.72;2.53;;;;;;;;;;5023053;28;20318;-73
2022/05/31 07:22:04;;;;;;;9.32;4.03;;;;;;;;;;5028600;28;20084;-70
2022/05/31 07:24:31;;;;;;;8.80;3.30;;;;;;;;;;5008891;28;20137;-69
2022/05/31 07:26:58;;;;;;;7.85;3.45;;;;;;;;;;5028472;28;20049;-70
2022/05/31 07:29:25;;;;;;;12.48;4.50;;;;;;;;;;5022630;28;20081;-67
2022/05/31 07:31:52;;;;;;;8.35;3.42;;;;;;;;;;5026692;28;20066;-71
2022/05/31 07:34:23;;;;;;;10.77;3.50;;;;;;;;;;5028799;28;20130;-67
2022/05/31 07:36:50;;;;;;;7.00;3.42;;;;;;;;;;5042681;28;20057;-70
2022/05/31 07:39:17;;;;;;;7.65;3.50;;;;;;;;;;5028895;28;20060;-68
2022/05/31 07:41:45;;;;;;;8.13;3.10;;;;;;;;;;5023345;28;20140;-73
2022/05/31 07:44:12;;;;;;;7.03;3.20;;;;;;;;;;5030668;28;20064;-71
2022/05/31 07:46:39;;;;;;;5.50;2.53;;;;;;;;;;5024581;28;20080;-71
2022/05/31 07:49:05;;;;;;;8.38;3.63;;;;;;;;;;5041808;28;20054;-69
2022/05/31 07:51:33;;;;;;;10.32;3.63;;;;;;;;;;5003911;28;20057;-69
2022/05/31 07:54:00;;;;;;;8.10;3.60;;;;;;;;;;5008264;28;20065;-70
2022/05/31 07:56:28;;;;;;;8.32;3.22;;;;;;;;;;5012600;28;20407;-70
2022/05/31 07:58:54;;;;;;;10.98;4.45;;;;;;;;;;5027851;28;20261;-65
2022/05/31 08:01:22;;;;;;;10.73;4.10;;;;;;;;;;5021377;28;20069;-71
2022/05/31 08:03:49;;;;;;;6.25;2.72;;;;;;;;;;5027751;28;20055;-71
2022/05/31 08:06:17;;;;;;;9.55;3.30;;;;;;;;;;5022033;28;20053;-73
2022/05/31 08:08:45;;;;;;;9.88;2.85;;;;;;;;;;5027965;28;20156;-74
2022/05/31 08:11:14;;;;;;;7.65;3.47;;;;;;;;;;5022497;28;20063;-71
2022/05/31 08:13:42;;;;;;;7.93;2.88;;;;;;;;;;5027645;28;20065;-68
2022/05/31 08:16:09;;;;;;;7.75;3.17;;;;;;;;;;5021863;28;20050;-69
2022/05/31 08:18:36;;;;;;;10.20;4.45;;;;;;;;;;5027390;28;20053;-66
2022/05/31 08:21:13;;;;;;;7.50;3.17;;;;;;;;;;5027386;28;20049;-71
2022/05/31 08:23:40;;;;;;;7.63;3.40;;;;;;;;;;5029321;28;20045;-69
2022/05/31 08:26:09;;;;;;;7.93;3.10;;;;;;;;;;5007996;28;20082;-74
2022/05/31 08:28:35;;;;;;;7.25;2.97;;;;;;;;;;5020156;28;20123;-73
2022/05/31 08:31:03;;;;;;;9.65;3.70;;;;;;;;;;5027517;28;20060;-74
2022/05/31 08:33:30;;;;;;;5.53;2.65;;;;;;;;;;5021619;28;20060;-74
2022/05/31 08:35:57;;;;;;;5.05;2.75;;;;;;;;;;5027143;28;20064;-71
2022/05/31 08:38:24;;;;;;;5.90;2.65;;;;;;;;;;5021127;28;20107;-70
2022/05/31 08:40:59;;;;;;;11.20;3.05;;;;;;;;;;5027624;28;20054;-71
2022/05/31 08:43:32;;;;;;;9.85;3.53;;;;;;;;;;5011832;28;20054;-69
2022/05/31 08:46:04;;;;;;;5.97;3.05;;;;;;;;;;5008537;28;20054;-68
2022/05/31 08:48:31;;;;;;;8.85;3.50;;;;;;;;;;5011786;28;20095;-68
2022/05/31 08:56:55;;;;;;;6.63;3.35;;;;;;;;;;5019439;28;20052;-70
2022/05/31 08:56:56;;;;;;;10.73;3.78;;;;;;;;;;5026895;28;20099;-70
2022/05/31 08:59:28;;;;;;;8.82;3.35;;;;;;;;;;5021508;28;20057;-67
2022/05/31 09:01:57;;;;;;;8.57;2.80;;;;;;;;;;5026246;28;20060;-67
2022/05/31 09:04:28;;;;;;;9.60;3.42;;;;;;;;;;5021711;28;20144;-66
2022/05/31 09:06:56;;;;;;;6.45;2.80;;;;;;;;;;5027227;28;20056;-66
2022/05/31 09:09:26;;;;;;;5.97;2.78;;;;;;;;;;5011909;28;20061;-70
2022/05/31 09:12:04;;;;;;;8.60;3.10;;;;;;;;;;5007402;28;20062;-68
2022/05/31 09:14:39;;;;;;;8.10;2.78;;;;;;;;;;5012355;28;20094;-66
2022/05/31 09:17:09;;;;;;;8.52;3.30;;;;;;;;;;5043790;28;20049;-68
2022/05/31 09:19:38;;;;;;;6.55;2.75;;;;;;;;;;5023179;28;20060;-68
2022/05/31 09:22:07;;;;;;;8.80;3.17;;;;;;;;;;5043049;28;20066;-64
2022/05/31 09:24:38;;;;;;;6.53;2.97;;;;;;;;;;5018339;28;20179;-69
2022/05/31 09:27:07;;;;;;;6.22;2.97;;;;;;;;;;5026984;28;20049;-67
2022/05/31 09:29:42;;;;;;;6.75;2.70;;;;;;;;;;5016094;28;20050;-67
2022/05/31 09:32:14;;;;;;;9.18;2.58;;;;;;;;;;5007564;28;20321;-67
2022/05/31 09:34:56;;;;;;;8.02;2.40;;;;;;;;;;5002660;28;20132;-64
2022/05/31 09:37:31;;;;;;;7.50;2.40;;;;;;;;;;5019587;28;20058;-64
2022/05/31 09:40:08;;;;;;;8.90;2.90;;;;;;;;;;5006225;28;20058;-70
2022/05/31 09:42:39;;;;;;;9.60;2.58;;;;;;;;;;5026176;28;20107;-64
2022/05/31 09:45:11;;;;;;;6.13;2.55;;;;;;;;;;5021261;28;20049;-68
2022/05/31 09:47:39;;;;;;;6.63;2.67;;;;;;;;;;5026104;28;20099;-67
2022/05/31 09:50:06;;;;;;;9.35;2.47;;;;;;;;;;5034272;28;20049;-70
2022/05/31 09:52:35;;;;;;;4.40;2.17;;;;;;;;;;5006153;28;20050;-65
2022/05/31 09:57:56;;;;;;;10.07;2.25;;;;;;;;;;5016691;28;20057;-67
2022/05/31 10:00:25;;;;;;;4.57;2.13;;;;;;;;;;5008191;28;20215;-65
2022/05/31 10:03:04;;;;;;;5.32;2.00;;;;;;;;;;5031259;28;20057;-66
2022/05/31 10:05:31;;;;;;;5.82;2.53;;;;;;;;;;5013490;28;20053;-68
2022/05/31 10:07:58;;;;;;;4.70;2.35;;;;;;;;;;5031939;28;20049;-64
2022/05/31 10:10:27;;;;;;;5.65;2.20;;;;;;;;;;5028451;28;20120;-67
2022/05/31 10:12:55;;;;;;;7.22;2.05;;;;;;;;;;5025848;28;20053;-64
2022/05/31 10:15:37;;;;;;;5.17;2.13;;;;;;;;;;5029108;28;20060;-64
2022/05/31 10:18:05;;;;;;;4.57;2.05;;;;;;;;;;5022381;28;20399;-64
2022/05/31 10:20:32;;;;;;;4.18;2.00;;;;;;;;;;5029586;28;20049;-68
2022/05/31 10:23:00;;;;;;;6.63;2.30;;;;;;;;;;5040742;28;20049;-67
2022/05/31 10:25:29;;;;;;;5.95;2.30;;;;;;;;;;5030364;28;20069;-65
2022/05/31 10:27:58;;;;;;;3.95;2.08;;;;;;;;;;5023203;28;20080;-65
2022/05/31 10:30:25;;;;;;;;;;;;;;;;;;5044883;28;20057;-64
2022/05/31 10:32:54;;;;;;;5.25;2.05;;;;;;;;;;5029375;28;19921;-66
2022/05/31 10:35:25;;;;;;;6.22;2.75;;;;;;;;;;5024917;28;20103;-69
2022/05/31 10:37:55;;;;;;;6.25;2.03;;;;;;;;;;5029692;28;20041;-67
2022/05/31 10:40:23;;;;;;;5.32;1.98;;;;;;;;;;5022922;28;20061;-72
2022/05/31 10:42:53;;;;;;;5.32;1.83;;;;;;;;;;5029644;28;20061;-70
2022/05/31 10:45:22;;;;;;;4.25;1.73;;;;;;;;;;5039004;28;20083;-69
2022/05/31 10:47:48;;;;;;;4.03;1.55;;;;;;;;;;5021711;28;20057;-70
2022/05/31 10:50:23;;;;;;;6.93;1.95;;;;;;;;;;5024085;28;20092;-69
2022/05/31 10:52:53;;;;;;;8.07;1.73;;;;;;;;;;5026265;28;20054;-67
2022/05/31 10:55:50;;;;;;;4.55;1.80;;;;;;;;;;5002343;28;20054;-68
2022/05/31 10:58:28;;;;;;;4.18;1.33;;;;;;;;;;4953205;28;20054;-67
2022/05/31 11:00:59;;;;;;;5.93;1.70;;;;;;;;;;5018533;28;20108;-69
2022/05/31 11:03:30;;;;;;;5.38;2.00;;;;;;;;;;5060570;28;20099;-69
2022/05/31 11:06:11;;;;;;;4.68;1.77;;;;;;;;;;5028658;28;20064;-70
2022/05/31 11:11:38;;;;;;;3.97;1.63;;;;;;;;;;5043782;28;20057;-66
2022/05/31 11:14:11;;;;;;;4.90;1.70;;;;;;;;;;5038650;28;20052;-68
2022/05/31 11:16:42;;;;;;;2.72;1.48;;;;;;;;;;5028825;28;20069;-68
2022/05/31 11:19:20;;;;;;;5.35;1.67;;;;;;;;;;5021974;28;20063;-66
2022/05/31 11:21:55;;;;;;;4.78;1.65;;;;;;;;;;5044889;28;20084;-66
2022/05/31 11:24:36;;;;;;;3.67;1.35;;;;;;;;;;5039106;28;20132;-68
2022/05/31 11:27:12;;;;;;;3.80;1.30;;;;;;;;;;5028386;28;20053;-67
2022/05/31 11:30:00;;;;;;;5.65;1.80;;;;;;;;;;5021866;28;20061;-66
2022/05/31 11:32:34;;;;;;;4.63;1.53;;;;;;;;;;5023697;28;20076;-67
2022/05/31 11:35:10;;;;;;;4.32;1.67;;;;;;;;;;5022749;28;20315;-66
2022/05/31 11:37:44;;;;;;;3.72;1.52;;;;;;;;;;5028682;28;20068;-67
2022/05/31 11:40:22;;;;;;;5.63;1.70;;;;;;;;;;5013482;28;20060;-65
2022/05/31 11:43:03;;;;;;;2.35;1.42;;;;;;;;;;5008567;28;20058;-64
2022/05/31 11:45:34;;;;;;;3.75;1.20;;;;;;;;;;5010220;28;20127;-67
2022/05/31 11:48:12;;;;;;;6.28;1.38;;;;;;;;;;5027262;28;20055;-66
2022/05/31 11:50:45;;;;;;;4.70;1.40;;;;;;;;;;5021938;28;20073;-66
2022/05/31 11:53:19;;;;;;;5.18;1.48;;;;;;;;;;5027549;28;20053;-68
2022/05/31 11:55:50;;;;;;;3.17;1.60;;;;;;;;;;5021455;28;20049;-65
2022/05/31 11:58:24;;;;;;;5.32;1.38;;;;;;;;;;5027123;28;20137;-66
2022/05/31 12:00:55;;;;;;;2.67;1.23;;;;;;;;;;5021861;28;20053;-67
2022/05/31 12:03:24;;;;;;;3.88;1.33;;;;;;;;;;5028135;28;20041;-67
2022/05/31 12:05:53;;;;;;;3.25;1.20;;;;;;;;;;5023054;28;20052;-67
2022/05/31 12:08:23;;;;;;;3.28;1.33;;;;;;;;;;5041958;28;20140;-67
2022/05/31 12:10:53;;;;;;;2.53;1.10;;;;;;;;;;5021388;28;20107;-67
2022/05/31 12:13:20;;;;;;;3.97;1.60;;;;;;;;;;5027214;28;20119;-66
2022/05/31 12:15:50;;;;;;;2.83;1.40;;;;;;;;;;5019769;28;20123;-65
2022/05/31 12:18:20;;;;;;;2.88;1.35;;;;;;;;;;5025173;28;20052;-66
2022/05/31 12:20:52;;;;;;;3.22;1.33;;;;;;;;;;5022185;28;20057;-66
2022/05/31 12:23:26;;;;;;;2.63;1.33;;;;;;;;;;5027501;28;20049;-66
2022/05/31 12:25:55;;;;;;;2.45;1.33;;;;;;;;;;5022946;28;20073;-65
2022/05/31 12:28:24;;;;;;;13.95;4.60;;;;;;;;;;5027587;28;20147;-66
2022/05/31 12:30:54;;;;;;;4.90;2.63;;;;;;;;;;5026719;28;20060;-66
2022/05/31 12:33:43;;;;;;;2.65;1.38;;;;;;;;;;5021007;28;20046;-65
2022/05/31 12:36:10;;;;;;;5.55;1.80;;;;;;;;;;5026317;28;20071;-66
2022/05/31 12:38:52;;;;;;;6.70;1.48;;;;;;;;;;5023240;28;20045;-66
2022/05/31 12:41:33;;;;;;;4.40;1.50;;;;;;;;;;5029372;28;20050;-67
2022/05/31 12:44:01;;;;;;;4.53;1.60;;;;;;;;;;5025797;28;20077;-66
2022/05/31 12:46:33;;;;;;;8.68;1.70;;;;;;;;;;5008170;28;20088;-65
2022/05/31 12:49:01;;;;;;;6.05;1.77;;;;;;;;;;5053553;28;20061;-65
2022/05/31 12:51:28;;;;;;;4.32;1.55;;;;;;;;;;5026489;28;20087;-65
2022/05/31 12:53:58;;;;;;;2.05;1.17;;;;;;;;;;5021490;28;20073;-66
2022/05/31 12:56:40;;;;;;;2.50;1.20;;;;;;;;;;5027003;28;20061;-67
2022/05/31 12:59:08;;;;;;;2.15;1.13;;;;;;;;;;5021299;28;20081;-66
2022/05/31 13:01:36;;;;;;;3.17;1.30;;;;;;;;;;5026407;28;20057;-66
2022/05/31 13:04:04;;;;;;;;;;;;;;;;;;5021731;28;20123;-65
2022/05/31 13:06:35;;;;;;;4.40;1.33;;;;;;;;;;5027793;28;19924;-65
2022/05/31 13:09:03;;;;;;;5.93;1.77;;;;;;;;;;5022244;28;20045;-66
2022/05/31 13:20:11;;;;;;;3.15;1.63;;;;;;;;;;5020968;28;20053;-65
2022/05/31 13:22:39;;;;;;;4.82;1.95;;;;;;;;;;5026233;28;20057;-65
2022/05/31 13:25:08;;;;;;;6.30;2.10;;;;;;;;;;5005152;28;20108;-66
2022/05/31 13:27:37;;;;;;;4.15;1.63;;;;;;;;;;5009548;28;20053;-67
2022/05/31 13:30:10;;;;;;;2.72;1.40;;;;;;;;;;5021704;28;20049;-66
2022/05/31 13:32:38;;;;;;;3.78;1.55;;;;;;;;;;5046764;28;20052;-66
2022/05/31 13:35:12;;;;;;;3.78;1.40;;;;;;;;;;5024930;28;20057;-66
2022/05/31 13:37:56;;;;;;;3.88;1.45;;;;;;;;;;5031105;28;20049;-68
2022/05/31 13:40:24;;;;;;;3.15;1.38;;;;;;;;;;5025372;28;20114;-66
2022/05/31 13:42:51;;;;;;;5.78;1.92;;;;;;;;;;5030263;28;20072;-68
2022/05/31 13:45:21;;;;;;;4.53;1.63;;;;;;;;;;5016878;28;20057;-65
2022/05/31 13:47:48;;;;;;;4.82;1.52;;;;;;;;;;5030810;28;20050;-66
2022/05/31 13:50:19;;;;;;;3.60;1.40;;;;;;;;;;5024878;28;20049;-65
2022/05/31 13:52:51;;;;;;;4.75;1.30;;;;;;;;;;5029746;28;20057;-65
2022/05/31 13:55:21;;;;;;;10.30;2.58;;;;;;;;;;5017210;28;20119;-65
2022/05/31 13:57:53;;;;;;;8.32;2.67;;;;;;;;;;5012243;28;20049;-67
2022/05/31 14:00:35;;;;;;;4.55;2.30;;;;;;;;;;5024459;28;20050;-65
2022/05/31 14:03:07;;;;;;;9.73;2.72;;;;;;;;;;5020589;28;20052;-65
2022/05/31 14:05:35;;;;;;;6.95;1.77;;;;;;;;;;5003954;28;20057;-65
2022/05/31 14:08:02;;;;;;;4.20;1.38;;;;;;;;;;5010192;28;20088;-64
2022/05/31 14:10:32;;;;;;;4.30;1.90;;;;;;;;;;5009595;28;20051;-64
2022/05/31 14:13:00;;;;;;;4.63;1.60;;;;;;;;;;5030288;28;20091;-64
2022/05/31 14:15:29;;;;;;;3.63;1.70;;;;;;;;;;5024638;28;20060;-66
2022/05/31 14:18:06;;;;;;;7.40;2.50;;;;;;;;;;5026925;28;20050;-67
2022/05/31 14:20:34;;;;;;;4.50;1.63;;;;;;;;;;5005512;28;20046;-63
2022/05/31 14:23:02;;;;;;;5.00;1.75;;;;;;;;;;5016255;28;20061;-64
2022/05/31 14:25:32;;;;;;;5.25;2.28;;;;;;;;;;5029394;28;20111;-64
2022/05/31 14:27:58;;;;;;;7.05;1.67;;;;;;;;;;5031127;28;20061;-66
2022/05/31 14:30:29;;;;;;;4.78;1.63;;;;;;;;;;5029441;28;20050;-69
2022/05/31 14:33:00;;;;;;;2.25;1.35;;;;;;;;;;5024254;28;20057;-64
2022/05/31 14:35:31;;;;;;;8.48;2.00;;;;;;;;;;5030632;28;20061;-69
2022/05/31 14:37:58;;;;;;;4.43;1.58;;;;;;;;;;5025849;28;20069;-72
2022/05/31 14:40:27;;;;;;;3.60;1.60;;;;;;;;;;5030224;28;20053;-64
2022/05/31 14:42:58;;;;;;;5.97;1.92;;;;;;;;;;5009071;28;20050;-66
2022/05/31 14:45:27;;;;;;;5.15;1.60;;;;;;;;;;5009700;28;20062;-65
2022/05/31 14:47:53;;;;;;;8.73;1.92;;;;;;;;;;5015756;28;20060;-66
2022/05/31 14:50:30;;;;;;;4.95;1.60;;;;;;;;;;5028670;28;20064;-67
2022/05/31 14:52:59;;;;;;;5.60;1.60;;;;;;;;;;5022773;28;20079;-67
2022/05/31 14:55:41;;;;;;;5.50;2.35;;;;;;;;;;5029225;28;20056;-65
2022/05/31 15:00:53;;;;;;;4.50;2.00;;;;;;;;;;5029274;28;20053;-65
2022/05/31 15:03:26;;;;;;;5.87;2.77;;;;;;;;;;5024457;28;20049;-66
2022/05/31 15:05:57;;;;;;;4.50;2.00;;;;;;;;;;5027029;28;20109;-66
2022/05/31 15:08:33;;;;;;;5.00;2.03;;;;;;;;;;5023450;28;20053;-66
2022/05/31 15:18:56;;;;;;;2.53;1.52;;;;;;;;;;5024280;28;20052;-66
2022/05/31 15:19:32;;;;;;;4.30;1.88;;;;;;;;;;5021114;28;20076;-66
2022/05/31 15:21:59;;;;;;;4.63;2.38;;;;;;;;;;5044079;28;20135;-65
2022/05/31 15:24:34;;;;;;;3.08;1.80;;;;;;;;;;5038579;28;20053;-65
2022/05/31 15:27:01;;;;;;;4.82;1.67;;;;;;;;;;5044127;28;20080;-67
2022/05/31 15:29:27;;;;;;;5.15;2.15;;;;;;;;;;5021845;28;20053;-66
2022/05/31 15:31:54;;;;;;;4.68;1.95;;;;;;;;;;5057138;28;20054;-66
2022/05/31 15:34:24;;;;;;;4.45;1.92;;;;;;;;;;5022377;28;20057;-65